createdAt,value
2022-10-12T00:03:42.592Z,33.3
2022-10-12T00:09:20.783Z,33.2
2022-10-12T00:14:56.380Z,33.2
2022-10-12T03:47:18.326Z,44.8
2022-10-12T03:52:56.148Z,44.8
2022-10-12T03:58:17.277Z,44.7
2022-10-12T04:03:56.478Z,44.7
2022-10-12T04:09:23.153Z,44.6
2022-10-12T04:14:59.011Z,44.6
2022-10-12T04:20:39.750Z,44.6
2022-10-12T04:26:19.595Z,44.4
2022-10-12T04:31:41.367Z,44.4
2022-10-12T04:37:18.814Z,44.4
2022-10-12T04:42:41.748Z,44.3
2022-10-12T04:48:18.968Z,44.3
2022-10-12T04:53:56.344Z,44.3
2022-10-12T04:59:19.386Z,44.3
2022-10-12T05:04:47.152Z,44.1
2022-10-12T05:10:09.310Z,44.1
2022-10-12T05:15:31.560Z,44
2022-10-12T05:21:13.022Z,43.9
2022-10-12T05:26:35.511Z,43.9
2022-10-12T05:32:03.972Z,43.8
2022-10-12T05:37:28.943Z,43.8
2022-10-12T05:42:56.519Z,43.8
2022-10-12T05:48:20.383Z,43.8
2022-10-12T05:53:42.270Z,43.8
2022-10-12T05:59:04.738Z,43.7
2022-10-12T06:04:31.850Z,43.6
2022-10-12T06:09:53.134Z,43.6
2022-10-12T06:15:19.416Z,43.5
2022-10-12T06:20:41.526Z,42.6
2022-10-12T06:26:33.436Z,37.6
2022-10-12T06:31:39.904Z,33.4
2022-10-12T06:37:02.314Z,31.3
2022-10-12T06:42:57.665Z,30
2022-10-12T06:48:35.715Z,29.1
2022-10-12T06:53:58.967Z,28.5
2022-10-12T06:59:24.407Z,28
2022-10-12T07:05:06.727Z,27.5
2022-10-12T07:10:29.502Z,27.1
2022-10-12T07:15:50.571Z,26.8
2022-10-12T07:21:13.196Z,26.6
2022-10-12T07:26:53.259Z,26.3
2022-10-12T07:32:15.053Z,26
2022-10-12T07:38:37.699Z,25.9
2022-10-12T07:44:27.442Z,25.7
2022-10-12T07:49:55.981Z,25.6
2022-10-12T18:09:50.995Z,25.8
2022-10-12T18:15:15.701Z,25.7
2022-10-12T18:20:37.671Z,25.7
2022-10-12T18:26:16.136Z,25.6
2022-10-12T18:31:38.490Z,25.6
2022-10-12T18:37:14.655Z,25.5
2022-10-12T18:42:55.693Z,25.4
2022-10-12T18:48:18.037Z,25.4
2022-10-12T18:53:40.014Z,25.4
2022-10-12T18:59:20.522Z,25.3
2022-10-12T19:04:43.444Z,25.3
2022-10-12T19:10:22.035Z,25.3
2022-10-12T19:15:59.403Z,25.9
2022-10-12T19:21:36.998Z,27.2
2022-10-12T19:27:14.236Z,28.7
2022-10-12T19:32:37.617Z,30.3
2022-10-12T19:38:15.318Z,31.8
2022-10-12T19:43:52.523Z,33.3
2022-10-12T19:49:15.109Z,34.7
2022-10-12T19:54:27.370Z,36.1
2022-10-12T19:59:52.823Z,37.1
2022-10-12T20:05:15.140Z,38.2
2022-10-12T20:10:53.076Z,39
2022-10-12T20:16:18.320Z,39.4
2022-10-12T20:21:57.020Z,39.6
2022-10-12T20:27:39.275Z,39.6
2022-10-12T20:33:17.090Z,39.7
2022-10-12T20:38:39.159Z,39.7
2022-10-12T20:44:17.573Z,39.7
2022-10-12T20:49:23.453Z,39.7
2022-10-12T20:55:00.846Z,39.7
2022-10-12T21:00:40.617Z,39.6
2022-10-12T21:06:18.045Z,39.6
2022-10-12T21:12:00.457Z,39.6
2022-10-12T21:17:23.632Z,39.6
2022-10-12T21:23:06.952Z,39.5
2022-10-12T21:28:45.217Z,39.4
2022-10-12T21:34:23.562Z,39.4
2022-10-12T21:39:44.240Z,39.3
2022-10-12T21:45:07.092Z,39.3
2022-10-12T21:50:29.151Z,39.3
2022-10-12T21:55:36.316Z,39.2
2022-10-12T22:00:42.179Z,39.1
2022-10-12T22:06:04.233Z,39.1
2022-10-12T22:11:30.717Z,39
